Time;durP1;ratioP1;P1;durP2;ratioP2;P2;SDS_P1;SDS_P2;PMS_P1;PMS_P2;Temp;Humidity;BMP_temperature;BMP_pressure;BME280_temperature;BME280_humidity;BME280_pressure;Samples;Min_cycle;Max_cycle;Signal;HPM_P1;HPM_P2
2022/09/10 00:02:20;;;;;;;10.85;5.78;;;;;;;12.19;100.00;99883.00;5116058;28;20050;-75
2022/09/10 00:04:49;;;;;;;11.88;6.07;;;;;;;12.20;100.00;99873.91;5116358;28;20420;-75
2022/09/10 00:07:17;;;;;;;11.65;5.65;;;;;;;12.24;100.00;99875.47;5116420;28;20386;-75
2022/09/10 00:09:45;;;;;;;11.77;6.07;;;;;;;12.23;100.00;99868.31;5116010;28;20511;-75
2022/09/10 00:12:12;;;;;;;12.77;6.43;;;;;;;12.17;100.00;99866.84;5115981;28;20054;-73
2022/09/10 00:14:41;;;;;;;11.05;5.93;;;;;;;12.22;100.00;99869.28;5116086;28;20040;-74
2022/09/10 00:17:08;;;;;;;11.82;6.20;;;;;;;12.18;100.00;99865.88;5115733;28;20392;-75
2022/09/10 00:19:36;;;;;;;12.30;6.32;;;;;;;12.20;100.00;99861.22;5116007;28;20043;-74
2022/09/10 00:22:04;;;;;;;12.55;6.78;;;;;;;12.17;100.00;99865.03;5115895;28;20047;-75
2022/09/10 00:24:32;;;;;;;12.20;6.40;;;;;;;12.12;100.00;99864.44;5116028;28;20477;-75
2022/09/10 00:27:00;;;;;;;12.65;6.50;;;;;;;12.18;100.00;99857.75;5115574;28;20047;-74
2022/09/10 00:29:27;;;;;;;13.18;6.75;;;;;;;12.21;100.00;99862.13;5114916;28;20050;-75
2022/09/10 00:31:56;;;;;;;14.02;6.13;;;;;;;12.15;100.00;99857.94;5115667;28;20047;-74
2022/09/10 00:34:24;;;;;;;12.70;6.07;;;;;;;12.17;100.00;99861.44;5115786;28;20404;-75
2022/09/10 00:36:51;;;;;;;15.48;6.72;;;;;;;12.12;100.00;99853.63;5115747;28;20043;-75
2022/09/10 00:39:19;;;;;;;11.95;6.00;;;;;;;12.12;100.00;99853.63;5115415;28;20096;-75
2022/09/10 00:41:48;;;;;;;12.05;6.30;;;;;;;12.01;100.00;99856.97;5115750;27;20040;-75
2022/09/10 00:44:53;;;;;;;12.23;5.95;;;;;;;12.13;100.00;99855.34;5115058;28;20047;-75
2022/09/10 00:47:24;;;;;;;12.52;5.80;;;;;;;12.20;100.00;99857.66;5095072;28;20047;-73
2022/09/10 00:49:55;;;;;;;13.63;6.13;;;;;;;12.06;100.00;99856.72;5096694;28;20055;-75
2022/09/10 00:52:22;;;;;;;11.23;5.72;;;;;;;12.13;100.00;99844.53;5095062;28;20412;-72
2022/09/10 00:54:50;;;;;;;11.52;5.95;;;;;;;12.17;100.00;99847.88;5095022;28;20044;-75
2022/09/10 00:57:21;;;;;;;10.90;5.68;;;;;;;12.12;100.00;99840.06;5094877;28;20566;-75
2022/09/10 00:59:51;;;;;;;12.15;5.68;;;;;;;12.03;100.00;99843.34;5094437;28;20047;-75
2022/09/10 01:02:19;;;;;;;11.80;6.15;;;;;;;12.07;100.00;99842.19;5095062;28;20484;-72
2022/09/10 01:04:48;;;;;;;12.30;6.28;;;;;;;12.11;100.00;99832.03;5094745;28;20055;-74
2022/09/10 01:07:16;;;;;;;11.00;5.68;;;;;;;12.08;100.00;99832.22;5094699;28;20047;-74
2022/09/10 01:09:44;;;;;;;12.30;6.30;;;;;;;12.05;100.00;99841.44;5094721;28;20040;-75
2022/09/10 01:12:20;;;;;;;12.20;5.93;;;;;;;12.00;100.00;99835.38;5094357;28;20059;-75
2022/09/10 01:15:03;;;;;;;14.30;6.22;;;;;;;12.07;100.00;99833.19;5094771;28;20413;-75
2022/09/10 01:17:34;;;;;;;13.55;6.22;;;;;;;12.01;100.00;99831.72;5094391;28;20059;-76
2022/09/10 01:20:19;;;;;;;11.65;6.32;;;;;;;12.07;100.00;99828.66;5095609;28;20116;-75
2022/09/10 01:23:13;;;;;;;13.88;6.60;;;;;;;12.06;100.00;99824.22;5094293;28;20044;-74
2022/09/10 01:25:44;;;;;;;11.68;5.95;;;;;;;12.06;100.00;99820.63;5092363;28;20052;-75
2022/09/10 01:28:17;;;;;;;12.20;5.95;;;;;;;12.06;100.00;99826.94;5109374;28;20047;-75
2022/09/10 01:30:48;;;;;;;12.27;5.85;;;;;;;12.13;100.00;99822.88;5115355;28;20051;-76
2022/09/10 01:33:22;;;;;;;14.02;6.00;;;;;;;12.19;100.00;99815.31;5116116;28;20047;-76
2022/09/10 01:35:52;;;;;;;12.20;5.95;;;;;;;12.00;100.00;99816.44;5116307;28;20044;-75
2022/09/10 01:38:22;;;;;;;11.18;5.95;;;;;;;12.02;100.00;99822.66;5114352;28;20043;-75
2022/09/10 01:40:49;;;;;;;11.65;6.10;;;;;;;12.01;100.00;99815.50;5113882;28;20048;-75
2022/09/10 01:43:18;;;;;;;13.95;6.10;;;;;;;11.97;100.00;99816.63;5113512;27;20047;-72
2022/09/10 01:45:55;;;;;;;11.90;6.30;;;;;;;11.93;100.00;99823.19;5114219;27;20044;-75
2022/09/10 01:48:32;;;;;;;13.27;6.50;;;;;;;12.01;100.00;99826.31;5114630;28;20100;-75
2022/09/10 01:51:07;;;;;;;15.23;6.38;;;;;;;11.98;100.00;99824.66;5114055;28;20044;-75
2022/09/10 01:53:51;;;;;;;13.50;6.75;;;;;;;12.01;100.00;99818.19;5114501;28;20055;-73
2022/09/10 01:56:26;;;;;;;13.32;6.57;;;;;;;12.00;100.00;99813.72;5114338;28;20392;-75
2022/09/10 01:58:58;;;;;;;13.88;6.78;;;;;;;12.02;100.00;99812.72;5114608;27;20057;-76
2022/09/10 02:01:29;;;;;;;12.40;5.90;;;;;;;12.00;100.00;99805.59;5115016;28;20499;-73
2022/09/10 02:03:59;;;;;;;13.52;6.28;;;;;;;12.03;100.00;99805.44;5115531;28;20044;-75
2022/09/10 02:06:28;;;;;;;12.68;6.63;;;;;;;11.97;100.00;99803.09;5114209;28;20071;-75
2022/09/10 02:08:57;;;;;;;14.13;6.60;;;;;;;11.92;100.00;99799.81;5114089;28;20489;-73
2022/09/10 02:11:25;;;;;;;11.82;5.97;;;;;;;11.90;100.00;99799.91;5113444;27;20039;-75
2022/09/10 02:13:53;;;;;;;13.07;6.78;;;;;;;11.94;100.00;99795.16;5113842;28;20051;-75
2022/09/10 02:16:26;;;;;;;13.45;6.65;;;;;;;11.94;100.00;99795.16;5114134;28;20067;-75
2022/09/10 02:18:54;;;;;;;13.07;6.30;;;;;;;11.96;100.00;99794.13;5113904;28;20043;-76
2022/09/10 02:21:21;;;;;;;12.68;6.03;;;;;;;11.96;100.00;99793.22;5113981;27;20066;-75
2022/09/10 02:23:52;;;;;;;13.10;6.38;;;;;;;11.97;100.00;99785.03;5113647;28;20519;-75
2022/09/10 02:26:20;;;;;;;11.43;5.80;;;;;;;11.89;100.00;99799.03;5113458;28;20051;-75
2022/09/10 02:28:48;;;;;;;12.48;5.68;;;;;;;11.85;100.00;99789.38;5113444;28;20074;-74
2022/09/10 02:31:17;;;;;;;13.13;6.53;;;;;;;12.01;100.00;99791.13;5113638;28;20373;-75
2022/09/10 02:33:46;;;;;;;106.07;45.83;;;;;;;12.03;100.00;99800.03;5113651;28;20048;-74
2022/09/10 02:36:14;;;;;;;65.03;21.80;;;;;;;11.89;100.00;99788.22;5113583;28;20450;-75
2022/09/10 02:38:41;;;;;;;39.67;14.90;;;;;;;11.91;100.00;99787.25;5113564;28;20054;-74
2022/09/10 02:41:09;;;;;;;47.65;19.17;;;;;;;11.97;100.00;99779.63;5113188;27;20081;-75
2022/09/10 02:43:37;;;;;;;43.50;18.67;;;;;;;11.97;100.00;99778.72;5113613;28;20040;-75
2022/09/10 02:46:06;;;;;;;17.95;8.95;;;;;;;11.97;100.00;99778.72;5113163;28;20131;-75
2022/09/10 02:48:34;;;;;;;14.50;7.07;;;;;;;11.92;100.00;99786.28;5113494;28;20043;-70
2022/09/10 02:51:03;;;;;;;13.40;6.03;;;;;;;11.92;100.00;99779.03;5113489;27;20047;-75
2022/09/10 02:53:31;;;;;;;12.07;5.68;;;;;;;11.89;100.00;99771.97;5115203;28;20400;-74
2022/09/10 02:55:59;;;;;;;12.25;5.68;;;;;;;11.95;100.00;99769.84;5117294;28;20043;-75
2022/09/10 02:58:30;;;;;;;11.02;5.50;;;;;;;11.95;100.00;99764.41;5117618;28;20101;-76
2022/09/10 03:01:06;;;;;;;11.70;6.13;;;;;;;11.95;100.00;99753.59;5117789;28;20039;-75
2022/09/10 03:03:34;;;;;;;12.25;5.47;;;;;;;12.01;100.00;99747.81;5117922;28;20401;-75
2022/09/10 03:06:03;;;;;;;13.30;5.05;;;;;;;11.94;100.00;99747.34;5117576;28;20092;-74
2022/09/10 03:08:30;;;;;;;13.68;5.88;;;;;;;11.96;100.00;99749.91;5117431;28;20047;-72
2022/09/10 03:10:58;;;;;;;14.07;4.80;;;;;;;11.88;100.00;99745.03;5116945;28;20101;-75
2022/09/10 03:13:27;;;;;;;12.00;5.88;;;;;;;11.96;100.00;99741.81;5117219;28;20079;-73
2022/09/10 03:15:54;;;;;;;11.20;5.25;;;;;;;12.02;100.00;99738.72;5117288;28;20562;-75
2022/09/10 03:18:23;;;;;;;12.55;5.47;;;;;;;11.91;100.00;99736.69;5117326;28;20044;-76
2022/09/10 03:20:50;;;;;;;12.32;5.07;;;;;;;11.95;100.00;99738.25;5117243;27;20743;-75
2022/09/10 03:23:19;;;;;;;11.25;5.10;;;;;;;11.88;100.00;99729.63;5117098;28;20051;-76
2022/09/10 03:25:47;;;;;;;10.80;5.15;;;;;;;11.91;100.00;99735.81;5116575;28;20039;-75
2022/09/10 03:28:15;;;;;;;11.48;5.40;;;;;;;11.97;100.00;99730.91;5116691;28;20043;-70
2022/09/10 03:30:42;;;;;;;11.38;5.18;;;;;;;11.94;100.00;99735.63;5116765;28;20507;-75
2022/09/10 03:33:11;;;;;;;11.68;5.07;;;;;;;11.89;100.00;99731.38;5116919;28;20048;-74
2022/09/10 03:35:38;;;;;;;11.52;5.30;;;;;;;11.92;100.00;99729.44;5116921;28;20433;-74
2022/09/10 03:38:06;;;;;;;11.30;5.03;;;;;;;11.97;100.00;99725.47;5116398;28;20051;-75
2022/09/10 03:40:35;;;;;;;13.30;5.82;;;;;;;11.98;100.00;99729.03;5108564;28;20044;-75
2022/09/10 03:43:02;;;;;;;11.82;5.07;;;;;;;12.01;100.00;99731.59;5116874;27;20068;-75
2022/09/10 03:45:29;;;;;;;11.95;5.43;;;;;;;12.08;100.00;99729.34;5116687;27;20058;-74
2022/09/10 03:47:58;;;;;;;10.82;5.20;;;;;;;11.94;100.00;99735.63;5116618;28;20043;-72
2022/09/10 03:50:25;;;;;;;12.15;5.05;;;;;;;11.98;100.00;99740.75;5116622;28;20043;-75
2022/09/10 03:52:53;;;;;;;10.20;4.72;;;;;;;11.91;100.00;99742.13;5116172;28;20051;-74
2022/09/10 03:55:21;;;;;;;11.15;5.05;;;;;;;11.97;100.00;99736.31;5116405;28;20074;-74
2022/09/10 03:57:49;;;;;;;12.35;5.32;;;;;;;11.96;100.00;99729.16;5116449;28;20043;-75
2022/09/10 04:00:17;;;;;;;10.50;4.85;;;;;;;11.96;100.00;99725.56;5116240;28;20051;-73
2022/09/10 04:02:45;;;;;;;11.57;5.28;;;;;;;12.05;100.00;99719.63;5116420;28;20512;-72
2022/09/10 04:05:13;;;;;;;12.23;5.18;;;;;;;11.97;100.00;99713.78;5115240;28;20078;-76
2022/09/10 04:07:40;;;;;;;12.63;5.28;;;;;;;11.98;100.00;99710.97;5116176;28;20048;-70
2022/09/10 04:10:08;;;;;;;10.35;4.88;;;;;;;11.98;100.00;99707.38;5116182;28;20088;-73
2022/09/10 04:12:36;;;;;;;12.40;5.38;;;;;;;11.93;100.00;99706.81;5116055;27;20051;-68
2022/09/10 04:15:06;;;;;;;12.55;6.00;;;;;;;11.86;100.00;99718.03;5116282;28;20119;-72
2022/09/10 04:17:33;;;;;;;12.50;5.60;;;;;;;11.99;100.00;99715.44;5116824;27;20043;-72
2022/09/10 04:20:01;;;;;;;13.25;5.55;;;;;;;11.94;100.00;99719.38;5115995;28;20048;-69
2022/09/10 04:22:28;;;;;;;10.38;5.05;;;;;;;11.87;100.00;99718.94;5115395;28;20484;-72
2022/09/10 04:24:56;;;;;;;13.27;5.53;;;;;;;12.00;100.00;99718.97;5115784;28;20051;-70
2022/09/10 04:27:24;;;;;;;12.43;5.72;;;;;;;12.00;100.00;99714.50;5115873;28;20400;-75
2022/09/10 04:29:51;;;;;;;15.73;5.82;;;;;;;12.00;100.00;99725.31;5115862;28;20492;-75
2022/09/10 04:32:20;;;;;;;14.02;5.70;;;;;;;11.96;100.00;99722.84;5115682;28;20040;-75
2022/09/10 04:34:48;;;;;;;14.90;6.45;;;;;;;11.98;100.00;99726.34;5115703;28;20050;-70
2022/09/10 04:37:15;;;;;;;11.73;5.30;;;;;;;12.00;100.00;99721.69;5115407;28;20047;-71
2022/09/10 04:39:43;;;;;;;12.75;5.93;;;;;;;12.04;100.00;99731.41;5115606;28;20089;-75
2022/09/10 04:42:13;;;;;;;12.23;5.40;;;;;;;11.95;100.00;99732.84;5115594;27;20047;-75
2022/09/10 04:44:41;;;;;;;10.18;4.68;;;;;;;12.01;100.00;99731.59;5116284;27;20052;-71
2022/09/10 04:47:08;;;;;;;13.38;6.18;;;;;;;12.01;100.00;99728.88;5115489;28;20051;-70
2022/09/10 04:49:37;;;;;;;11.18;5.38;;;;;;;11.94;100.00;99727.50;5115330;28;20119;-75
2022/09/10 04:52:05;;;;;;;14.30;6.00;;;;;;;12.03;100.00;99724.22;5114919;28;20043;-70
2022/09/10 04:54:33;;;;;;;11.65;4.97;;;;;;;11.93;100.00;99721.25;5115441;28;20047;-71
2022/09/10 04:57:00;;;;;;;11.45;5.40;;;;;;;11.99;100.00;99717.25;5115438;28;20396;-73
2022/09/10 04:59:28;;;;;;;12.35;5.70;;;;;;;12.03;100.00;99708.88;5115265;28;20100;-69
2022/09/10 05:01:56;;;;;;;12.85;5.47;;;;;;;11.93;100.00;99704.13;5115260;28;20096;-75
2022/09/10 05:04:24;;;;;;;13.15;5.47;;;;;;;11.96;100.00;99709.31;5115214;27;20053;-72
2022/09/10 05:06:53;;;;;;;13.65;6.05;;;;;;;12.01;100.00;99710.81;5114840;27;20070;-75
2022/09/10 05:09:21;;;;;;;12.75;5.70;;;;;;;11.93;100.00;99709.53;5115015;28;20055;-75
2022/09/10 05:11:48;;;;;;;13.98;5.25;;;;;;;11.94;100.00;99703.16;5114779;28;20051;-75
2022/09/10 05:14:16;;;;;;;12.63;5.32;;;;;;;11.98;100.00;99704.69;5115314;28;20051;-75
2022/09/10 05:16:45;;;;;;;12.45;5.68;;;;;;;12.23;100.00;99689.59;5114690;28;20050;-75
2022/09/10 05:19:16;;;;;;;13.90;6.00;;;;;;;12.14;100.00;99682.94;5114969;28;20397;-69
2022/09/10 05:21:44;;;;;;;13.10;5.72;;;;;;;12.10;100.00;99686.81;5114797;28;20039;-75
2022/09/10 05:24:15;;;;;;;11.35;5.60;;;;;;;12.07;100.00;99684.31;5114547;28;20108;-73
2022/09/10 05:26:42;;;;;;;12.13;5.55;;;;;;;12.01;100.00;99699.97;5114491;28;20413;-75
2022/09/10 05:29:10;;;;;;;14.23;5.90;;;;;;;12.06;100.00;99701.53;5114825;28;20051;-76
2022/09/10 05:31:39;;;;;;;13.10;5.40;;;;;;;12.06;100.00;99691.56;5114453;28;20444;-75
2022/09/10 05:34:07;;;;;;;14.48;5.43;;;;;;;12.01;100.00;99699.97;5114377;28;20047;-71
2022/09/10 05:36:35;;;;;;;12.82;5.25;;;;;;;12.06;100.00;99697.00;5114593;28;20049;-75
2022/09/10 05:39:03;;;;;;;12.30;5.03;;;;;;;12.13;100.00;99702.84;5114484;28;20044;-75
2022/09/10 05:41:32;;;;;;;12.35;5.80;;;;;;;12.04;100.00;99698.94;5114400;28;20054;-74
2022/09/10 05:44:00;;;;;;;13.05;6.15;;;;;;;12.11;100.00;99692.16;5114464;27;20050;-72
2022/09/10 05:46:29;;;;;;;13.50;5.80;;;;;;;12.46;100.00;99698.91;5114130;28;20044;-69
2022/09/10 05:48:57;;;;;;;13.60;5.40;;;;;;;12.13;100.00;99698.31;5113896;28;20508;-74
2022/09/10 05:51:28;;;;;;;9.80;4.53;;;;;;;12.03;100.00;99703.47;5114296;28;20047;-75
2022/09/10 05:53:56;;;;;;;11.68;5.15;;;;;;;12.07;100.00;99703.25;5115446;28;20112;-69
2022/09/10 05:56:24;;;;;;;11.60;4.88;;;;;;;12.07;100.00;99706.84;5114161;28;20413;-72
2022/09/10 05:58:53;;;;;;;13.65;5.72;;;;;;;12.21;100.00;99705.06;5114169;28;20051;-75
2022/09/10 06:01:21;;;;;;;10.82;4.97;;;;;;;12.19;100.00;99696.19;5113998;28;20052;-76
2022/09/10 06:03:49;;;;;;;15.43;6.88;;;;;;;12.20;100.00;99703.34;5113959;28;20063;-72
2022/09/10 06:06:18;;;;;;;15.27;6.43;;;;;;;12.10;100.00;99700.34;5114057;28;20051;-75
2022/09/10 06:08:51;;;;;;;14.05;5.88;;;;;;;12.10;100.00;99697.66;5113911;28;20500;-75
2022/09/10 06:11:18;;;;;;;15.48;6.00;;;;;;;12.11;100.00;99699.38;5115252;28;20050;-75
2022/09/10 06:13:45;;;;;;;52.72;21.58;;;;;;;12.19;100.00;99697.03;5113877;28;20052;-70
2022/09/10 06:16:15;;;;;;;21.75;10.43;;;;;;;12.22;100.00;99690.56;5113973;28;20105;-74
2022/09/10 06:18:45;;;;;;;14.43;7.20;;;;;;;12.20;100.00;99687.09;5113468;28;20047;-73
2022/09/10 06:21:13;;;;;;;15.13;7.40;;;;;;;12.25;100.00;99690.34;5115311;28;20044;-75
2022/09/10 06:23:42;;;;;;;14.30;7.15;;;;;;;12.26;100.00;99681.25;5113856;27;20051;-74
2022/09/10 06:26:11;;;;;;;13.35;7.05;;;;;;;12.34;100.00;99669.94;5113843;28;20047;-70
2022/09/10 06:28:39;;;;;;;14.20;6.55;;;;;;;12.28;100.00;99665.78;5113089;27;20052;-75
2022/09/10 06:31:07;;;;;;;16.98;7.53;;;;;;;12.31;100.00;99663.75;5113691;28;20039;-75
2022/09/10 06:33:36;;;;;;;13.95;5.60;;;;;;;12.25;100.00;99663.28;5113364;28;20122;-75
2022/09/10 06:36:04;;;;;;;12.88;5.45;;;;;;;12.24;100.00;99658.84;5113530;28;20050;-72
2022/09/10 06:38:33;;;;;;;11.50;5.07;;;;;;;12.22;100.00;99658.94;5113584;28;20036;-74
2022/09/10 06:41:03;;;;;;;14.77;6.15;;;;;;;12.28;100.00;99655.84;5113608;28;20133;-75
2022/09/10 06:43:33;;;;;;;13.07;6.05;;;;;;;12.22;100.00;99655.38;5114613;27;20043;-71
2022/09/10 06:46:00;;;;;;;13.18;5.13;;;;;;;12.20;100.00;99650.03;5113374;27;20047;-75
2022/09/10 06:48:28;;;;;;;13.23;5.55;;;;;;;12.20;100.00;99649.19;5113299;28;20039;-75
2022/09/10 06:50:58;;;;;;;14.40;6.80;;;;;;;12.22;100.00;99649.94;5113499;28;20055;-75
2022/09/10 06:53:28;;;;;;;13.20;5.57;;;;;;;12.25;100.00;99644.31;5114366;28;20097;-75
2022/09/10 06:55:55;;;;;;;12.05;5.80;;;;;;;12.22;100.00;99647.25;5113628;27;20040;-75
2022/09/10 06:58:24;;;;;;;11.30;5.22;;;;;;;12.24;100.00;99643.47;5113628;28;20044;-75
2022/09/10 07:00:51;;;;;;;13.25;6.20;;;;;;;12.23;100.00;99639.00;5113511;27;20062;-75
2022/09/10 07:03:20;;;;;;;12.93;6.18;;;;;;;12.10;100.00;99638.97;5113507;28;20086;-70
2022/09/10 07:05:48;;;;;;;14.40;6.60;;;;;;;12.19;100.00;99637.47;5113577;28;20048;-75
2022/09/10 07:08:19;;;;;;;13.52;5.93;;;;;;;12.32;100.00;99634.81;5113543;28;20048;-75
2022/09/10 07:10:47;;;;;;;14.27;6.80;;;;;;;12.17;100.00;99632.16;5114220;28;20067;-76
2022/09/10 07:13:15;;;;;;;15.35;6.85;;;;;;;12.12;100.00;99628.91;5112928;28;20058;-74
2022/09/10 07:15:46;;;;;;;18.58;7.47;;;;;;;12.12;100.00;99634.31;5112950;28;20043;-75
2022/09/10 07:18:14;;;;;;;15.27;6.95;;;;;;;12.15;100.00;99635.94;5112204;28;20082;-75
2022/09/10 07:20:42;;;;;;;14.90;7.07;;;;;;;12.09;100.00;99633.66;5113168;28;20496;-75
2022/09/10 07:23:10;;;;;;;16.67;7.80;;;;;;;12.18;100.00;99641.16;5113302;28;20052;-75
2022/09/10 07:25:40;;;;;;;15.43;7.03;;;;;;;12.10;100.00;99638.09;5113106;28;20043;-75
2022/09/10 07:28:11;;;;;;;16.67;7.10;;;;;;;12.10;100.00;99644.38;5112999;27;20381;-75
2022/09/10 07:30:39;;;;;;;15.35;7.88;;;;;;;12.11;100.00;99643.41;5113777;28;20043;-71
2022/09/10 07:33:07;;;;;;;14.73;7.25;;;;;;;12.12;100.00;99647.84;5112920;28;20503;-75
2022/09/10 07:35:36;;;;;;;15.25;6.90;;;;;;;12.06;100.00;99647.38;5113127;28;20428;-75
2022/09/10 07:38:04;;;;;;;17.17;7.40;;;;;;;11.98;100.00;99656.84;5113050;28;20051;-75
2022/09/10 07:40:31;;;;;;;15.45;7.28;;;;;;;12.05;100.00;99651.94;5116148;28;20048;-75
2022/09/10 07:43:00;;;;;;;14.63;6.53;;;;;;;12.13;100.00;99648.72;5116695;28;20048;-75
2022/09/10 07:45:29;;;;;;;13.20;6.30;;;;;;;12.18;100.00;99641.16;5116251;27;20044;-75
2022/09/10 07:47:56;;;;;;;15.27;7.07;;;;;;;12.20;100.00;99643.78;5116599;28;20040;-75
2022/09/10 07:50:23;;;;;;;16.33;7.40;;;;;;;12.17;100.00;99639.41;5116607;28;20047;-75
2022/09/10 07:52:51;;;;;;;16.65;7.78;;;;;;;12.19;100.00;99644.75;5116526;28;20051;-72
2022/09/10 07:55:19;;;;;;;17.38;7.60;;;;;;;12.17;100.00;99645.72;5116489;28;20048;-76
2022/09/10 07:57:47;;;;;;;17.40;7.65;;;;;;;12.16;100.00;99641.25;5116612;28;20047;-75
2022/09/10 08:00:17;;;;;;;18.10;7.82;;;;;;;12.19;100.00;99647.44;5115979;28;20047;-75
2022/09/10 08:02:45;;;;;;;15.77;7.45;;;;;;;12.20;100.00;99646.47;5116286;28;20039;-76
2022/09/10 08:05:13;;;;;;;15.00;7.25;;;;;;;12.16;100.00;99649.38;5116422;28;20040;-75
2022/09/10 08:07:41;;;;;;;14.48;7.20;;;;;;;12.25;100.00;99638.91;5116296;28;20050;-75
2022/09/10 08:10:10;;;;;;;17.63;7.35;;;;;;;12.16;100.00;99633.16;5116242;28;20404;-70
2022/09/10 08:12:38;;;;;;;14.80;7.53;;;;;;;12.13;100.00;99632.47;5116037;28;20051;-70
2022/09/10 08:15:07;;;;;;;17.85;8.20;;;;;;;12.09;100.00;99622.81;5115992;27;20048;-74
2022/09/10 08:17:37;;;;;;;17.58;7.63;;;;;;;12.17;100.00;99615.94;5116228;27;20054;-72
2022/09/10 08:20:06;;;;;;;16.23;7.53;;;;;;;12.28;100.00;99622.47;5115920;28;20400;-69
2022/09/10 08:22:34;;;;;;;15.38;7.45;;;;;;;12.22;100.00;99620.16;5115840;28;20059;-72
2022/09/10 08:25:02;;;;;;;15.88;7.38;;;;;;;12.12;100.00;99620.78;5115916;28;20055;-69
2022/09/10 08:27:29;;;;;;;17.58;7.30;;;;;;;12.13;100.00;99627.06;5115846;28;20042;-71
2022/09/10 08:29:57;;;;;;;15.77;7.25;;;;;;;12.12;100.00;99642.44;5115562;28;20048;-69
2022/09/10 08:32:26;;;;;;;14.25;7.25;;;;;;;12.20;100.00;99632.94;5115844;28;20070;-70
2022/09/10 08:34:55;;;;;;;16.30;7.30;;;;;;;12.23;100.00;99648.97;5115788;28;20043;-71
2022/09/10 08:37:23;;;;;;;16.17;8.07;;;;;;;12.24;100.00;99642.59;5115726;28;20048;-74
2022/09/10 08:39:50;;;;;;;16.50;8.00;;;;;;;12.23;100.00;99639.00;5115518;28;20385;-71
2022/09/10 08:42:22;;;;;;;15.52;7.70;;;;;;;12.16;100.00;99633.16;5115773;27;20047;-68
2022/09/10 08:44:53;;;;;;;16.58;7.30;;;;;;;12.12;100.00;99639.72;5115421;28;20047;-74
2022/09/10 08:47:25;;;;;;;16.35;7.60;;;;;;;12.14;100.00;99637.78;5116650;28;20484;-74
2022/09/10 08:49:56;;;;;;;15.55;7.68;;;;;;;12.26;100.00;99637.94;5117103;28;20040;-70
2022/09/10 08:52:28;;;;;;;15.20;7.57;;;;;;;12.10;100.00;99628.13;5114922;28;20047;-75
2022/09/10 08:55:00;;;;;;;17.13;7.65;;;;;;;12.22;100.00;99625.59;5116074;28;20051;-75
2022/09/10 08:57:32;;;;;;;15.88;7.05;;;;;;;12.21;100.00;99630.13;5115996;28;20044;-76
2022/09/10 09:00:02;;;;;;;13.63;6.47;;;;;;;12.21;100.00;99623.84;5116330;28;20092;-74
2022/09/10 09:02:35;;;;;;;14.07;6.97;;;;;;;12.17;100.00;99628.59;5115249;28;20066;-74
2022/09/10 09:05:07;;;;;;;14.95;7.10;;;;;;;12.24;100.00;99623.63;5115572;28;20069;-74
2022/09/10 09:07:39;;;;;;;14.82;6.72;;;;;;;12.20;100.00;99617.53;5115414;28;20043;-73
2022/09/10 09:10:18;;;;;;;14.88;7.40;;;;;;;12.30;100.00;99623.22;5115895;27;20059;-72
2022/09/10 09:12:52;;;;;;;14.23;6.55;;;;;;;12.24;100.00;99621.81;5115072;28;20076;-70
2022/09/10 09:15:24;;;;;;;12.63;6.13;;;;;;;12.22;100.00;99620.16;5116121;28;20558;-75
2022/09/10 09:18:02;;;;;;;14.98;6.43;;;;;;;12.21;100.00;99615.72;5116732;28;20289;-73
2022/09/10 09:20:40;;;;;;;21.98;11.65;;;;;;;12.24;100.00;99619.09;5116933;28;20047;-75
2022/09/10 09:23:19;;;;;;;19.02;10.57;;;;;;;12.20;100.00;99614.84;5116603;28;20101;-72
2022/09/10 09:25:48;;;;;;;15.30;7.28;;;;;;;12.23;100.00;99616.47;5114897;28;20554;-75
2022/09/10 09:28:22;;;;;;;41.22;20.05;;;;;;;12.27;100.00;99615.31;5114159;28;20051;-72
2022/09/10 09:30:51;;;;;;;18.23;10.35;;;;;;;12.26;100.00;99609.03;5115309;28;20047;-69
2022/09/10 09:33:21;;;;;;;14.48;6.43;;;;;;;12.27;100.00;99613.47;5114704;28;20066;-71
2022/09/10 09:35:52;;;;;;;13.43;6.70;;;;;;;12.39;100.00;99611.75;5116571;28;20481;-75
2022/09/10 09:38:23;;;;;;;16.65;7.82;;;;;;;12.45;100.00;99611.38;5114780;28;20054;-70
2022/09/10 09:40:55;;;;;;;15.50;8.10;;;;;;;12.41;100.00;99608.97;5114556;28;20070;-72
2022/09/10 09:43:31;;;;;;;12.38;6.00;;;;;;;12.40;100.00;99608.06;5115300;27;20070;-75
2022/09/10 09:45:58;;;;;;;14.57;6.95;;;;;;;12.40;100.00;99618.91;5115697;27;20048;-72
2022/09/10 09:48:35;;;;;;;12.13;6.25;;;;;;;12.44;100.00;99616.88;5114314;28;20043;-76
2022/09/10 09:51:03;;;;;;;;;;;;;;;12.41;100.00;99611.66;5114756;28;20048;-72
2022/09/10 09:53:31;;;;;;;14.15;6.40;;;;;;;12.53;100.00;99607.28;5114100;28;19973;-76
2022/09/10 09:56:00;;;;;;;14.20;6.85;;;;;;;12.36;100.00;99603.00;5113930;28;20044;-75
2022/09/10 09:58:36;;;;;;;14.68;6.53;;;;;;;12.41;100.00;99603.53;5114316;28;20051;-73
2022/09/10 10:01:22;;;;;;;14.93;7.38;;;;;;;12.30;100.00;99594.31;5114171;28;20046;-74
2022/09/10 10:03:53;;;;;;;15.63;8.38;;;;;;;12.64;100.00;99595.66;5115243;28;20601;-75
2022/09/10 10:06:24;;;;;;;14.20;7.05;;;;;;;12.41;100.00;99598.13;5114594;27;20044;-75
2022/09/10 10:09:03;;;;;;;13.55;6.93;;;;;;;12.36;100.00;99590.31;5114606;28;20067;-76
2022/09/10 10:11:56;;;;;;;15.85;7.72;;;;;;;12.34;100.00;99576.00;5114296;28;20446;-75
2022/09/10 10:14:33;;;;;;;14.43;7.25;;;;;;;12.53;100.00;99574.75;5094792;28;20158;-75
2022/09/10 10:17:02;;;;;;;12.77;5.93;;;;;;;12.37;100.00;99569.53;5114402;28;20068;-75
2022/09/10 10:19:32;;;;;;;16.63;9.00;;;;;;;12.43;100.00;99569.94;5113803;28;20492;-77
2022/09/10 10:22:21;;;;;;;17.83;10.00;;;;;;;12.48;100.00;99555.25;5115188;28;20039;-72
2022/09/10 10:24:50;;;;;;;15.68;8.90;;;;;;;12.46;100.00;99552.63;5113975;27;20044;-74
2022/09/10 10:27:20;;;;;;;12.50;6.43;;;;;;;12.44;100.00;99547.34;5113623;28;20044;-75
2022/09/10 10:29:58;;;;;;;12.65;6.03;;;;;;;12.49;100.00;99548.84;5113747;28;20050;-76
2022/09/10 10:32:34;;;;;;;16.50;8.93;;;;;;;12.51;100.00;99544.19;5115517;28;20051;-76
2022/09/10 10:35:26;;;;;;;16.45;9.05;;;;;;;12.54;100.00;99549.41;5113788;28;20050;-72
2022/09/10 10:38:39;;;;;;;13.77;6.28;;;;;;;12.48;100.00;99533.59;5112020;28;20065;-75
2022/09/10 10:41:32;;;;;;;14.60;7.93;;;;;;;12.55;100.00;99541.16;5019157;28;20466;-71
2022/09/10 10:44:11;;;;;;;14.38;7.15;;;;;;;12.55;100.00;99529.47;5025816;28;20061;-75
2022/09/10 10:46:47;;;;;;;14.57;7.45;;;;;;;12.53;100.00;99529.56;5031319;28;20124;-70
2022/09/10 10:49:21;;;;;;;12.85;6.15;;;;;;;12.53;100.00;99532.28;5032483;28;20132;-76
2022/09/10 10:51:55;;;;;;;11.65;5.28;;;;;;;12.52;100.00;99527.81;5032895;28;20061;-75
2022/09/10 10:54:40;;;;;;;12.02;5.63;;;;;;;12.59;100.00;99525.56;5030904;28;20077;-75
2022/09/10 10:57:15;;;;;;;14.50;5.70;;;;;;;12.62;100.00;99528.06;5032632;28;20049;-75
2022/09/10 10:59:51;;;;;;;12.43;5.40;;;;;;;12.63;100.00;99527.09;5030906;28;20056;-75
2022/09/10 11:02:26;;;;;;;12.18;5.45;;;;;;;12.53;100.00;99531.41;5031138;28;20462;-71
2022/09/10 11:04:55;;;;;;;12.55;5.75;;;;;;;12.61;100.00;99532.59;5030768;28;20057;-75
2022/09/10 11:07:27;;;;;;;12.43;5.78;;;;;;;12.63;100.00;99535.22;5030914;28;20049;-71
2022/09/10 11:10:00;;;;;;;13.30;6.35;;;;;;;12.61;100.00;99526.31;5032023;28;20485;-75
2022/09/10 11:12:33;;;;;;;12.00;5.50;;;;;;;12.54;100.00;99533.16;5032469;28;20558;-75
2022/09/10 11:15:04;;;;;;;13.02;6.68;;;;;;;12.61;100.00;99537.16;5033398;28;20049;-75
2022/09/10 11:17:38;;;;;;;14.25;6.80;;;;;;;12.67;100.00;99534.03;5070634;28;20055;-75
2022/09/10 11:20:12;;;;;;;14.60;8.05;;;;;;;12.51;100.00;99527.94;5117979;28;20058;-73
2022/09/10 11:22:44;;;;;;;12.20;6.03;;;;;;;12.44;100.00;99525.69;5118093;28;20062;-75
2022/09/10 11:25:18;;;;;;;12.30;5.93;;;;;;;12.48;100.00;99528.16;5118718;28;20047;-72
2022/09/10 11:27:49;;;;;;;13.25;6.10;;;;;;;12.53;100.00;99523.28;5116863;28;20043;-75
2022/09/10 11:30:18;;;;;;;14.10;6.50;;;;;;;12.54;100.00;99516.91;5117061;28;20051;-73
2022/09/10 11:32:49;;;;;;;14.90;7.40;;;;;;;12.58;100.00;99524.69;5116818;28;20044;-75